Alplaus, NY (12008)

10:09 PM EST on December 05, 2016 (GMT -0500)
GE Volunteers | | Change Station

Elev 350 ft 42.83 °N, 73.88 °W | Updated 14 seconds ago

Mostly Cloudy
Mostly Cloudy
35.8 °F
Feels Like 36 °F
N
2.0
Wind Variable Wind from SW
Gusts 6.0 mph

Today
High -- | Low -- °F
--% Chance of Precip.
Yesterday
High -- | Low -- °F
Precip. -- in
Pressure 30.04 in
Visibility 10.0 miles
Clouds Mostly Cloudy 7000 ft
Windchill 36 °F
Dew Point 32 °F
Humidity 87%
Rainfall 0.00 in
Snow Depth Not available.
7:11 AM 4:21 PM
Waxing Crescent, 37% visible
METAR KSCH 060250Z 27007KT 10SM BKN070 02/01 A3004 RMK LAST
Pressure 30.04 in
Visibility 10.0 miles
Clouds Mostly Cloudy 7000 ft
Windchill 36 °F
Dew Point 32 °F
Humidity 87%
Rainfall 0.00 in
Snow Depth Not available.
7:11 AM 4:21 PM
Waxing Crescent, 37% visible
METAR KSCH 060250Z 27007KT 10SM BKN070 02/01 A3004 RMK LAST

10-Day Weather Forecast

Almanac

Astronomy

Dec. 05, 2016 Rise Set
Actual Time
Civil Twilight
Nautical Twilight
Astronomical Twilight
Moon
Length of Visible Light
Length of Day
Tomorrow will be .
, % of the Moon is Illuminated

Today's Extremes

State Highs State Lows

Community

WunderPhotos

Upload Photos

1,955,914 photos uploaded!

WunderBlog® & News

Nearby

Air Quality

  Air Quality AQ Index Pollutant
Not available.

Snow Depth

Station Depth Elevation

Earthquake Activity

City Distance Mag. Time & Date
Minimum magnitude displayed is 2.5.

Coastal Water Temperatures

Place Temperature

Stations

Nearby Weather Stations

Station Location Temp. Windchill Dew Point Humidity Wind Precip. Elev Updated Type
                   

Watches & Warnings

There are currently no watches in effect.